Time,TemperatureF,DewpointF,PressureIn,WindDirection,WindDirectionDegrees,WindSpeedMPH,WindSpeedGustMPH,Humidity,HourlyPrecipIn,Conditions,Clouds,dailyrainin,SoftwareType,DateUTC
2013-05-23 00:01:00,57.0,48.0,29.83,ESE,112,16.0,29.0,71,0.00,,,0.00,,2013-05-23 07:01:00,
2013-05-23 00:11:00,57.0,48.0,29.83,ESE,112,16.0,29.0,71,0.00,,,0.00,,2013-05-23 07:11:00,
2013-05-23 00:21:00,57.0,49.0,29.83,ESE,117,16.0,26.0,74,0.00,,,0.00,,2013-05-23 07:21:00,
2013-05-23 00:31:00,56.0,48.0,29.83,ESE,123,19.0,24.0,74,0.00,,,0.00,,2013-05-23 07:31:00,
2013-05-23 00:42:00,56.0,48.0,29.83,ESE,123,19.0,24.0,74,0.00,,,0.00,,2013-05-23 07:42:00,
2013-05-23 00:59:00,56.0,49.0,29.83,ESE,113,17.0,25.0,76,0.00,,,0.00,,2013-05-23 07:59:00,
2013-05-23 01:11:00,55.0,47.0,29.84,ESE,123,16.0,27.0,75,0.00,,,0.00,,2013-05-23 08:11:00,
2013-05-23 01:21:00,55.0,47.0,29.84,SE,132,17.0,25.0,74,0.00,,,0.00,,2013-05-23 08:21:00,
2013-05-23 01:31:00,55.0,47.0,29.84,SE,129,19.0,24.0,74,0.00,,,0.00,,2013-05-23 08:31:00,
2013-05-23 01:41:00,55.0,47.0,29.84,SE,129,19.0,24.0,74,0.00,,,0.00,,2013-05-23 08:41:00,
2013-05-23 01:51:00,55.0,47.0,29.84,ESE,120,18.0,23.0,73,0.00,,,0.00,,2013-05-23 08:51:00,
2013-05-23 02:01:00,55.0,47.0,29.84,ESE,108,16.0,22.0,74,0.00,,,0.00,,2013-05-23 09:01:00,
2013-05-23 02:11:00,55.0,47.0,29.84,ESE,108,16.0,22.0,74,0.00,,,0.00,,2013-05-23 09:11:00,
2013-05-23 02:21:00,55.0,47.0,29.84,ESE,120,17.0,22.0,75,0.00,,,0.00,,2013-05-23 09:21:00,
2013-05-23 02:32:00,54.0,46.0,29.83,ESE,106,17.0,26.0,75,0.00,,,0.00,,2013-05-23 09:32:00,
2013-05-23 02:42:00,54.0,46.0,29.83,ESE,106,17.0,26.0,75,0.00,,,0.00,,2013-05-23 09:42:00,
2013-05-23 02:53:00,54.0,46.0,29.83,ESE,108,18.0,22.0,75,0.00,,,0.00,,2013-05-23 09:53:00,
2013-05-23 03:02:00,54.0,47.0,29.83,ESE,106,17.0,21.0,76,0.00,,,0.00,,2013-05-23 10:02:00,
2013-05-23 03:12:00,54.0,47.0,29.83,ESE,106,17.0,21.0,76,0.00,,,0.00,,2013-05-23 10:12:00,
2013-05-23 03:22:00,53.0,46.0,29.82,ESE,114,18.0,27.0,77,0.00,,,0.00,,2013-05-23 10:22:00,
2013-05-23 03:32:00,53.0,46.0,29.83,ESE,108,20.0,27.0,77,0.00,,,0.00,,2013-05-23 10:32:00,
2013-05-23 03:42:00,53.0,46.0,29.83,ESE,108,20.0,27.0,77,0.00,,,0.00,,2013-05-23 10:42:00,
2013-05-23 03:52:00,53.0,46.0,29.83,ESE,111,17.0,25.0,77,0.00,,,0.00,,2013-05-23 10:52:00,
2013-05-23 04:02:00,53.0,46.0,29.83,ESE,120,18.0,21.0,78,0.00,,,0.00,,2013-05-23 11:02:00,
2013-05-23 04:11:00,53.0,46.0,29.83,ESE,120,18.0,21.0,78,0.00,,,0.00,,2013-05-23 11:11:00,
2013-05-23 04:21:00,53.0,46.0,29.84,ESE,111,15.0,20.0,78,0.00,,,0.00,,2013-05-23 11:21:00,
2013-05-23 04:32:00,53.0,46.0,29.84,ESE,112,17.0,21.0,78,0.00,,,0.00,,2013-05-23 11:32:00,
2013-05-23 04:41:00,53.0,46.0,29.84,ESE,112,17.0,21.0,78,0.00,,,0.00,,2013-05-23 11:41:00,
2013-05-23 04:52:00,52.0,46.0,29.84,ESE,105,16.0,22.0,79,0.00,,,0.00,,2013-05-23 11:52:00,
2013-05-23 05:01:00,52.0,45.0,29.84,ESE,103,15.0,20.0,78,0.00,,,0.00,,2013-05-23 12:01:00,
2013-05-23 05:11:00,52.0,45.0,29.84,ESE,103,15.0,20.0,78,0.00,,,0.00,,2013-05-23 12:11:00,
2013-05-23 05:21:00,52.0,45.0,29.84,ESE,108,15.0,21.0,77,0.00,,,0.00,,2013-05-23 12:21:00,
2013-05-23 05:32:00,53.0,46.0,29.84,East,98,18.0,23.0,76,0.00,,,0.00,,2013-05-23 12:32:00,
2013-05-23 05:41:00,53.0,46.0,29.84,East,98,18.0,23.0,76,0.00,,,0.00,,2013-05-23 12:41:00,
2013-05-23 05:52:00,52.0,45.0,29.84,ESE,114,16.0,20.0,77,0.00,,,0.00,,2013-05-23 12:52:00,
2013-05-23 06:01:00,52.0,45.0,29.85,East,94,13.0,20.0,76,0.00,,,0.00,,2013-05-23 13:01:00,
2013-05-23 06:11:00,52.0,45.0,29.85,East,94,13.0,20.0,76,0.00,,,0.00,,2013-05-23 13:11:00,
2013-05-23 06:21:00,52.0,45.0,29.85,East,100,16.0,20.0,76,0.00,,,0.00,,2013-05-23 13:21:00,
2013-05-23 06:31:00,53.0,45.0,29.86,ESE,108,17.0,22.0,75,0.00,,,0.00,,2013-05-23 13:31:00,
2013-05-23 06:41:00,53.0,45.0,29.86,ESE,108,17.0,22.0,75,0.00,,,0.00,,2013-05-23 13:41:00,
2013-05-23 06:52:00,53.0,45.0,29.86,East,98,16.0,24.0,73,0.00,,,0.00,,2013-05-23 13:52:00,
2013-05-23 07:01:00,54.0,44.0,29.87,East,89,17.0,22.0,70,0.00,,,0.00,,2013-05-23 14:01:00,
2013-05-23 07:11:00,54.0,44.0,29.87,East,89,17.0,22.0,70,0.00,,,0.00,,2013-05-23 14:11:00,
2013-05-23 07:21:00,54.0,44.0,29.87,ESE,112,15.0,20.0,68,0.00,,,0.00,,2013-05-23 14:21:00,
2013-05-23 07:31:00,55.0,45.0,29.88,East,98,12.0,20.0,68,0.00,,,0.00,,2013-05-23 14:31:00,
2013-05-23 07:41:00,55.0,45.0,29.88,East,98,12.0,20.0,68,0.00,,,0.00,,2013-05-23 14:41:00,
2013-05-23 07:52:00,55.0,44.0,29.88,ESE,108,15.0,20.0,67,0.00,,,0.00,,2013-05-23 14:52:00,
2013-05-23 08:01:00,56.0,44.0,29.89,ESE,111,11.0,19.0,65,0.00,,,0.00,,2013-05-23 15:01:00,
2013-05-23 08:11:00,56.0,44.0,29.89,ESE,111,11.0,19.0,65,0.00,,,0.00,,2013-05-23 15:11:00,
2013-05-23 08:21:00,57.0,44.0,29.89,ESE,106,10.0,18.0,62,0.00,,,0.00,,2013-05-23 15:21:00,
2013-05-23 08:32:00,58.0,44.0,29.89,ESE,109,13.0,17.0,59,0.00,,,0.00,,2013-05-23 15:32:00,
2013-05-23 08:42:00,58.0,44.0,29.89,ESE,109,13.0,17.0,59,0.00,,,0.00,,2013-05-23 15:42:00,
2013-05-23 08:53:00,59.0,44.0,29.90,SE,127,10.0,15.0,57,0.00,,,0.00,,2013-05-23 15:53:00,
2013-05-23 09:03:00,61.0,44.0,29.90,ESE,122,11.0,16.0,53,0.00,,,0.00,,2013-05-23 16:03:00,
2013-05-23 09:12:00,61.0,44.0,29.90,ESE,122,11.0,16.0,53,0.00,,,0.00,,2013-05-23 16:12:00,
2013-05-23 09:22:00,62.0,41.0,29.90,East,101,16.0,20.0,46,0.00,,,0.00,,2013-05-23 16:22:00,
2013-05-23 09:33:00,64.0,39.0,29.90,East,93,16.0,22.0,39,0.00,,,0.00,,2013-05-23 16:33:00,
2013-05-23 09:42:00,64.0,39.0,29.90,East,93,16.0,22.0,39,0.00,,,0.00,,2013-05-23 16:42:00,
2013-05-23 09:52:00,64.0,39.0,29.90,ESE,106,16.0,23.0,40,0.00,,,0.00,,2013-05-23 16:52:00,
2013-05-23 10:02:00,65.0,39.0,29.90,East,84,19.0,23.0,38,0.00,,,0.00,,2013-05-23 17:02:00,
2013-05-23 10:11:00,65.0,39.0,29.90,East,84,19.0,23.0,38,0.00,,,0.00,,2013-05-23 17:11:00,
2013-05-23 10:22:00,66.0,38.0,29.89,ESE,111,18.0,25.0,35,0.00,,,0.00,,2013-05-23 17:22:00,
2013-05-23 10:33:00,66.0,38.0,29.89,ESE,106,21.0,27.0,36,0.00,,,0.00,,2013-05-23 17:33:00,
2013-05-23 10:42:00,66.0,38.0,29.89,ESE,106,21.0,27.0,36,0.00,,,0.00,,2013-05-23 17:42:00,
2013-05-23 10:52:00,67.0,42.0,29.89,East,99,21.0,30.0,40,0.00,,,0.00,,2013-05-23 17:52:00,
2013-05-23 11:01:00,67.0,41.0,29.89,East,100,20.0,30.0,39,0.00,,,0.00,,2013-05-23 18:01:00,
2013-05-23 11:11:00,67.0,41.0,29.89,East,100,20.0,30.0,39,0.00,,,0.00,,2013-05-23 18:11:00,
2013-05-23 11:21:00,67.0,43.0,29.89,ESE,112,23.0,28.0,41,0.00,,,0.00,,2013-05-23 18:21:00,
2013-05-23 11:32:00,67.0,41.0,29.89,ESE,108,24.0,29.0,39,0.00,,,0.00,,2013-05-23 18:32:00,
2013-05-23 11:42:00,67.0,41.0,29.89,ESE,108,24.0,29.0,39,0.00,,,0.00,,2013-05-23 18:42:00,
2013-05-23 11:52:00,68.0,39.0,29.88,ESE,105,22.0,29.0,34,0.00,,,0.00,,2013-05-23 18:52:00,
2013-05-23 12:01:00,69.0,42.0,29.88,ESE,109,23.0,29.0,37,0.00,,,0.00,,2013-05-23 19:01:00,
2013-05-23 12:11:00,69.0,42.0,29.88,ESE,109,23.0,29.0,37,0.00,,,0.00,,2013-05-23 19:11:00,
2013-05-23 12:21:00,70.0,41.0,29.89,East,99,24.0,31.0,35,0.00,,,0.00,,2013-05-23 19:21:00,
2013-05-23 12:31:00,70.0,40.0,29.88,SE,125,23.0,29.0,33,0.00,,,0.00,,2013-05-23 19:31:00,
2013-05-23 12:41:00,70.0,40.0,29.88,SE,125,23.0,29.0,33,0.00,,,0.00,,2013-05-23 19:41:00,
2013-05-23 12:52:00,71.0,41.0,29.88,ESE,120,20.0,26.0,34,0.00,,,0.00,,2013-05-23 19:52:00,
2013-05-23 13:02:00,72.0,41.0,29.88,East,82,21.0,27.0,32,0.00,,,0.00,,2013-05-23 20:02:00,
2013-05-23 13:11:00,72.0,41.0,29.88,East,82,21.0,27.0,32,0.00,,,0.00,,2013-05-23 20:11:00,
2013-05-23 13:21:00,73.0,41.0,29.88,ESE,120,22.0,27.0,31,0.00,,,0.00,,2013-05-23 20:21:00,
2013-05-23 13:31:00,73.0,41.0,29.88,SE,131,22.0,29.0,31,0.00,,,0.00,,2013-05-23 20:31:00,
2013-05-23 13:41:00,73.0,41.0,29.88,SE,131,22.0,29.0,31,0.00,,,0.00,,2013-05-23 20:41:00,
2013-05-23 13:52:00,73.0,39.0,29.88,ESE,106,22.0,27.0,29,0.00,,,0.00,,2013-05-23 20:52:00,
2013-05-23 14:01:00,75.0,39.0,29.88,ESE,103,22.0,28.0,27,0.00,,,0.00,,2013-05-23 21:01:00,
2013-05-23 14:11:00,75.0,39.0,29.88,ESE,103,22.0,28.0,27,0.00,,,0.00,,2013-05-23 21:11:00,
2013-05-23 14:21:00,75.0,38.0,29.88,ESE,120,23.0,30.0,26,0.00,,,0.00,,2013-05-23 21:21:00,
2013-05-23 14:32:00,78.0,17.0,29.88,East,85,23.0,28.0,10,0.00,,,0.00,,2013-05-23 21:32:00,
2013-05-23 14:53:00,78.0,25.0,29.89,East,79,19.0,25.0,14,0.00,,,0.00,,2013-05-23 21:53:00,
2013-05-23 15:02:00,77.0,22.0,29.89,ENE,63,20.0,29.0,13,0.00,,,0.00,,2013-05-23 22:02:00,
2013-05-23 15:12:00,77.0,22.0,29.89,ENE,63,20.0,29.0,13,0.00,,,0.00,,2013-05-23 22:12:00,
2013-05-23 15:22:00,77.0,24.0,29.89,NE,54,22.0,27.0,14,0.00,,,0.00,,2013-05-23 22:22:00,
2013-05-23 15:33:00,77.0,24.0,29.89,ENE,58,20.0,29.0,14,0.00,,,0.00,,2013-05-23 22:33:00,
2013-05-23 15:42:00,77.0,24.0,29.89,ENE,58,20.0,29.0,14,0.00,,,0.00,,2013-05-23 22:42:00,
2013-05-23 15:52:00,77.0,26.0,29.89,ENE,67,16.0,24.0,15,0.00,,,0.00,,2013-05-23 22:52:00,
2013-05-23 16:01:00,77.0,27.0,29.89,NNE,27,18.0,27.0,16,0.00,,,0.00,,2013-05-23 23:01:00,
2013-05-23 16:11:00,77.0,27.0,29.89,NNE,27,18.0,27.0,16,0.00,,,0.00,,2013-05-23 23:11:00,
2013-05-23 16:21:00,77.0,26.0,29.88,NNE,22,17.0,22.0,15,0.00,,,0.00,,2013-05-23 23:21:00,
2013-05-23 16:31:00,77.0,29.0,29.89,NE,36,13.0,21.0,17,0.00,,,0.00,,2013-05-23 23:31:00,
2013-05-23 16:42:00,77.0,29.0,29.89,NE,36,13.0,21.0,17,0.00,,,0.00,,2013-05-23 23:42:00,
2013-05-23 16:52:00,77.0,27.0,29.88,NE,38,16.0,23.0,16,0.00,,,0.00,,2013-05-23 23:52:00,
2013-05-23 17:01:00,77.0,27.0,29.88,NE,54,15.0,21.0,16,0.00,,,0.00,,2013-05-24 00:01:00,
2013-05-23 17:11:00,77.0,27.0,29.88,NE,54,15.0,21.0,16,0.00,,,0.00,,2013-05-24 00:11:00,
2013-05-23 17:21:00,77.0,27.0,29.88,NE,46,15.0,20.0,16,0.00,,,0.00,,2013-05-24 00:21:00,
2013-05-23 17:31:00,76.0,25.0,29.88,NE,53,17.0,22.0,15,0.00,,,0.00,,2013-05-24 00:31:00,
2013-05-23 17:42:00,76.0,25.0,29.88,NE,53,17.0,22.0,15,0.00,,,0.00,,2013-05-24 00:42:00,
2013-05-23 17:52:00,75.0,27.0,29.88,NE,37,17.0,24.0,17,0.00,,,0.00,,2013-05-24 00:52:00,
2013-05-23 18:01:00,75.0,30.0,29.88,NNE,27,14.0,23.0,19,0.00,,,0.00,,2013-05-24 01:01:00,
2013-05-23 18:11:00,75.0,30.0,29.88,NNE,27,14.0,23.0,19,0.00,,,0.00,,2013-05-24 01:11:00,
2013-05-23 18:22:00,74.0,32.0,29.88,NNE,27,14.0,22.0,21,0.00,,,0.00,,2013-05-24 01:22:00,
2013-05-23 18:31:00,74.0,28.0,29.88,ENE,63,15.0,22.0,18,0.00,,,0.00,,2013-05-24 01:31:00,
2013-05-23 18:41:00,74.0,28.0,29.88,ENE,63,15.0,22.0,18,0.00,,,0.00,,2013-05-24 01:41:00,
2013-05-23 18:52:00,73.0,35.0,29.88,ENE,61,17.0,20.0,25,0.00,,,0.00,,2013-05-24 01:52:00,
2013-05-23 19:01:00,72.0,35.0,29.88,NE,49,16.0,23.0,26,0.00,,,0.00,,2013-05-24 02:01:00,
2013-05-23 19:11:00,72.0,35.0,29.88,NE,49,16.0,23.0,26,0.00,,,0.00,,2013-05-24 02:11:00,
2013-05-23 19:21:00,71.0,38.0,29.88,NE,39,15.0,21.0,30,0.00,,,0.00,,2013-05-24 02:21:00,
2013-05-23 19:32:00,70.0,40.0,29.88,ENE,60,13.0,20.0,33,0.00,,,0.00,,2013-05-24 02:32:00,
2013-05-23 19:42:00,70.0,40.0,29.88,ENE,60,13.0,20.0,33,0.00,,,0.00,,2013-05-24 02:42:00,
2013-05-23 19:52:00,68.0,35.0,29.89,ENE,58,11.0,20.0,30,0.00,,,0.00,,2013-05-24 02:52:00,
2013-05-23 20:02:00,67.0,34.0,29.89,ENE,60,13.0,15.0,29,0.00,,,0.00,,2013-05-24 03:02:00,
2013-05-23 20:11:00,67.0,34.0,29.89,ENE,60,13.0,15.0,29,0.00,,,0.00,,2013-05-24 03:11:00,
2013-05-23 20:21:00,66.0,38.0,29.90,ENE,75,11.0,14.0,36,0.00,,,0.00,,2013-05-24 03:21:00,
2013-05-23 20:33:00,65.0,39.0,29.90,East,94,10.0,14.0,38,0.00,,,0.00,,2013-05-24 03:33:00,
2013-05-23 20:42:00,65.0,39.0,29.90,East,94,10.0,14.0,38,0.00,,,0.00,,2013-05-24 03:42:00,
2013-05-23 20:53:00,63.0,40.0,29.90,ENE,74,10.0,13.0,43,0.00,,,0.00,,2013-05-24 03:53:00,
2013-05-23 21:03:00,62.0,43.0,29.91,ESE,102,13.0,16.0,49,0.00,,,0.00,,2013-05-24 04:03:00,
2013-05-23 21:12:00,62.0,43.0,29.91,ESE,102,13.0,16.0,49,0.00,,,0.00,,2013-05-24 04:12:00,
2013-05-23 21:22:00,60.0,43.0,29.91,ESE,120,12.0,15.0,53,0.00,,,0.00,,2013-05-24 04:22:00,
2013-05-23 21:32:00,60.0,43.0,29.91,ESE,115,16.0,24.0,54,0.00,,,0.00,,2013-05-24 04:32:00,
2013-05-23 21:42:00,60.0,43.0,29.91,ESE,115,16.0,24.0,54,0.00,,,0.00,,2013-05-24 04:42:00,
2013-05-23 21:53:00,59.0,46.0,29.91,ESE,115,15.0,22.0,62,0.00,,,0.00,,2013-05-24 04:53:00,
2013-05-23 22:02:00,58.0,45.0,29.92,ESE,117,12.0,20.0,61,0.00,,,0.00,,2013-05-24 05:02:00,
2013-05-23 22:12:00,58.0,45.0,29.92,ESE,117,12.0,20.0,61,0.00,,,0.00,,2013-05-24 05:12:00,
2013-05-23 22:22:00,58.0,46.0,29.92,ESE,107,17.0,21.0,65,0.00,,,0.00,,2013-05-24 05:22:00,
2013-05-23 22:32:00,58.0,46.0,29.92,ESE,104,14.0,22.0,64,0.00,,,0.00,,2013-05-24 05:32:00,
2013-05-23 22:42:00,58.0,46.0,29.92,ESE,104,14.0,22.0,64,0.00,,,0.00,,2013-05-24 05:42:00,
2013-05-23 22:52:00,59.0,44.0,29.93,ESE,108,18.0,26.0,58,0.00,,,0.00,,2013-05-24 05:52:00,
2013-05-23 23:01:00,59.0,44.0,29.94,ESE,108,13.0,19.0,57,0.00,,,0.00,,2013-05-24 06:01:00,
2013-05-23 23:11:00,59.0,44.0,29.94,ESE,108,13.0,19.0,57,0.00,,,0.00,,2013-05-24 06:11:00,
2013-05-23 23:21:00,59.0,44.0,29.93,East,98,18.0,26.0,58,0.00,,,0.00,,2013-05-24 06:21:00,
2013-05-23 23:32:00,58.0,44.0,29.94,East,96,13.0,18.0,60,0.00,,,0.00,,2013-05-24 06:32:00,
2013-05-23 23:41:00,58.0,44.0,29.94,East,96,13.0,18.0,60,0.00,,,0.00,,2013-05-24 06:41:00,
2013-05-23 23:52:00,58.0,45.0,29.94,ESE,103,16.0,23.0,63,0.00,,,0.00,,2013-05-24 06:52:00,